Time;durP1;ratioP1;P1;durP2;ratioP2;P2;SDS_P1;SDS_P2;PMS_P1;PMS_P2;Temp;Humidity;BMP_temperature;BMP_pressure;BME280_temperature;BME280_humidity;BME280_pressure;Samples;Min_cycle;Max_cycle;Signal;HPM_P1;HPM_P2
2022/01/25 00:10:25;;;;;;;1.30;1.20;;;;;;;-11.32;86.32;100337.94;5031071;28;20104;-82
2022/01/25 00:26:35;;;;;;;1.23;1.20;;;;;;;-11.36;87.26;100316.41;5030097;28;20557;-81
2022/01/25 00:29:08;;;;;;;1.38;1.27;;;;;;;-11.31;87.49;100311.00;5030107;28;20140;-80
2022/01/25 00:31:37;;;;;;;1.10;1.10;;;;;;;-11.32;87.31;100306.69;5028403;28;20578;-81
2022/01/25 00:34:05;;;;;;;1.17;1.15;;;;;;;-11.40;87.40;100287.03;5028278;28;20145;-81
2022/01/25 00:36:33;;;;;;;1.33;1.23;;;;;;;-11.31;87.71;100293.59;5046814;28;20049;-83
2022/01/25 00:39:01;;;;;;;1.20;1.20;;;;;;;-11.29;87.62;100280.47;5029944;28;20050;-84
2022/01/25 00:41:28;;;;;;;1.33;1.23;;;;;;;-11.32;87.59;100278.84;5016142;28;20061;-84
2022/01/25 00:43:57;;;;;;;1.27;1.20;;;;;;;-11.25;87.60;100268.97;5011866;28;20424;-84
2022/01/25 00:46:24;;;;;;;1.30;1.20;;;;;;;-11.19;87.82;100258.22;5021868;28;20046;-84
2022/01/25 00:48:56;;;;;;;1.40;1.30;;;;;;;-11.17;87.59;100257.25;5031326;28;20574;-84
2022/01/25 00:54:04;;;;;;;1.45;1.35;;;;;;;-11.24;87.43;100241.97;5031237;28;20050;-83
2022/01/25 00:56:36;;;;;;;1.33;1.23;;;;;;;-11.27;87.33;100242.13;5031445;28;20543;-82
2022/01/25 00:59:06;;;;;;;1.20;1.15;;;;;;;-11.27;87.64;100244.75;5036581;28;20574;-85
2022/01/25 01:01:34;;;;;;;1.33;1.23;;;;;;;-11.29;87.60;100243.97;5036559;28;20497;-83
2022/01/25 01:04:05;;;;;;;1.30;1.20;;;;;;;-11.27;87.99;100252.56;5033353;28;20179;-83
2022/01/25 01:06:35;;;;;;;1.13;1.13;;;;;;;-11.25;87.98;100248.13;5030726;28;20507;-83
2022/01/25 01:09:04;;;;;;;1.50;1.40;;;;;;;-11.24;88.02;100252.41;5030960;28;20136;-84
2022/01/25 01:12:27;;;;;;;1.30;1.20;;;;;;;-11.32;87.99;100242.34;5030989;28;20049;-84
2022/01/25 01:14:51;;;;;;;1.30;1.20;;;;;;;-11.36;88.28;100233.03;5027464;28;20050;-84
2022/01/25 01:31:07;;;;;;;1.50;1.40;;;;;;;-11.26;88.60;100195.16;5034610;28;20049;-83
2022/01/25 01:44:10;;;;;;;1.40;1.30;;;;;;;-11.17;88.43;100183.41;5035478;28;20051;-83
2022/01/25 01:46:44;;;;;;;1.30;1.20;;;;;;;-11.10;88.31;100174.38;5032814;28;20046;-83
2022/01/25 01:49:12;;;;;;;1.10;1.10;;;;;;;-11.12;87.88;100171.81;5034624;28;20050;-84
2022/01/25 01:51:43;;;;;;;1.50;1.40;;;;;;;-11.16;87.74;100165.09;5034239;28;20512;-83
2022/01/25 01:54:13;;;;;;;1.40;1.30;;;;;;;-11.20;87.80;100147.09;5035205;28;20077;-83
2022/01/25 01:56:43;;;;;;;1.15;1.15;;;;;;;-11.15;87.80;100145.09;5034163;28;20144;-84
2022/01/25 01:59:13;;;;;;;1.02;1.02;;;;;;;-11.12;87.92;100139.69;5049949;28;20053;-83
2022/01/25 02:01:42;;;;;;;1.00;1.00;;;;;;;-11.20;87.54;100137.50;5034325;28;20505;-84
2022/01/25 02:04:12;;;;;;;1.40;1.30;;;;;;;-11.21;87.82;100132.38;5034362;28;20508;-84
2022/01/25 02:06:39;;;;;;;1.30;1.20;;;;;;;-11.25;87.77;100123.03;5033961;28;20053;-82
2022/01/25 02:09:09;;;;;;;1.33;1.23;;;;;;;-11.28;87.74;100129.22;5034469;28;20053;-84
2022/01/25 02:11:37;;;;;;;1.13;1.13;;;;;;;-11.26;87.75;100124.78;5034035;28;20053;-84
2022/01/25 02:14:05;;;;;;;1.50;1.40;;;;;;;-11.27;87.63;100124.84;5033167;28;20412;-83
2022/01/25 02:16:45;;;;;;;1.10;1.10;;;;;;;-11.31;87.87;100112.91;5034558;28;20148;-83
2022/01/25 02:24:47;;;;;;;1.40;1.30;;;;;;;-11.40;88.32;100112.44;5042753;28;20046;-84
2022/01/25 02:27:15;;;;;;;1.00;1.00;;;;;;;-11.40;88.22;100093.38;5032741;28;20053;-83
2022/01/25 02:29:43;;;;;;;1.10;1.10;;;;;;;-11.33;88.50;100097.34;5032666;28;20084;-83
2022/01/25 02:32:10;;;;;;;1.30;1.20;;;;;;;-11.28;88.31;100112.75;5033785;28;20144;-83
2022/01/25 02:34:37;;;;;;;1.00;1.00;;;;;;;-11.25;88.56;100097.78;5032650;28;20077;-84
2022/01/25 02:37:07;;;;;;;1.40;1.30;;;;;;;-11.22;88.15;100096.78;5033261;28;20053;-83
2022/01/25 02:39:42;;;;;;;1.40;1.30;;;;;;;-11.26;88.07;100097.88;5032332;28;20733;-83
2022/01/25 02:42:11;;;;;;;1.40;1.30;;;;;;;-11.30;88.02;100091.97;5033793;28;20049;-84
2022/01/25 02:44:39;;;;;;;1.40;1.30;;;;;;;-11.31;87.97;100090.31;5033017;28;20041;-84
2022/01/25 02:49:51;;;;;;;1.13;1.13;;;;;;;-11.33;87.62;100078.28;5033137;28;20537;-85
2022/01/25 02:52:19;;;;;;;1.40;1.30;;;;;;;-11.30;87.68;100075.50;5033489;28;20049;-84
2022/01/25 02:54:46;;;;;;;1.00;1.00;;;;;;;-11.29;87.52;100069.34;5048711;28;20132;-84
2022/01/25 02:57:13;;;;;;;1.30;1.20;;;;;;;-11.30;87.24;100075.50;5033099;28;20057;-83
2022/01/25 02:59:40;;;;;;;1.40;1.30;;;;;;;-11.36;87.31;100080.09;5032719;28;20509;-82
2022/01/25 03:02:08;;;;;;;1.33;1.23;;;;;;;-11.32;87.43;100074.72;5033095;28;20500;-84
2022/01/25 03:04:36;;;;;;;1.33;1.23;;;;;;;-11.35;87.25;100081.78;5031620;28;20389;-83
2022/01/25 03:07:03;;;;;;;1.38;1.27;;;;;;;-11.42;87.52;100083.03;5032799;28;20099;-83
2022/01/25 03:09:31;;;;;;;1.10;1.10;;;;;;;-11.44;87.65;100079.66;5032731;28;20104;-82
2022/01/25 03:12:00;;;;;;;1.40;1.30;;;;;;;-11.45;87.62;100088.38;5032481;28;20057;-82
2022/01/25 03:14:32;;;;;;;1.08;1.08;;;;;;;-11.45;87.54;100091.00;5031238;28;20060;-83
2022/01/25 03:24:55;;;;;;;1.40;1.30;;;;;;;-11.43;87.74;100064.88;5032194;28;20053;-82
2022/01/25 03:27:22;;;;;;;1.40;1.30;;;;;;;-11.44;87.70;100063.16;5032116;28;20559;-80
2022/01/25 03:29:49;;;;;;;1.38;1.27;;;;;;;-11.53;87.75;100067.09;5032297;28;20155;-84
2022/01/25 03:32:16;;;;;;;1.30;1.20;;;;;;;-11.62;87.71;100057.13;5032928;28;20484;-81
2022/01/25 03:34:44;;;;;;;1.30;1.20;;;;;;;-11.67;87.83;100057.41;5033001;28;20053;-82
2022/01/25 03:37:11;;;;;;;1.48;1.38;;;;;;;-11.63;87.96;100058.06;5033321;28;20046;-82
2022/01/25 03:39:40;;;;;;;1.40;1.30;;;;;;;-11.64;88.16;100044.22;5032790;28;20084;-82
2022/01/25 03:42:09;;;;;;;1.45;1.35;;;;;;;-11.61;88.29;100043.22;4681011;28;10000412;-82
2022/01/25 03:44:36;;;;;;;1.15;1.13;;;;;;;-11.66;88.40;100047.81;5027704;28;20464;-81
2022/01/25 03:47:08;;;;;;;1.50;1.40;;;;;;;-11.64;88.45;100054.63;5028907;28;20578;-80
2022/01/25 03:49:52;;;;;;;1.50;1.40;;;;;;;-11.64;88.57;100044.22;5027610;28;20533;-82
2022/01/25 03:52:33;;;;;;;1.40;1.30;;;;;;;-11.70;88.55;100033.25;5028310;28;20439;-80
2022/01/25 03:55:00;;;;;;;1.30;1.20;;;;;;;-11.69;88.65;100035.78;5028489;28;20140;-82
2022/01/25 03:57:28;;;;;;;1.38;1.27;;;;;;;-11.64;88.83;100033.78;5025900;28;20049;-81
2022/01/25 03:59:59;;;;;;;1.30;1.20;;;;;;;-11.61;88.67;100038.84;5027998;28;20050;-80
2022/01/25 04:02:46;;;;;;;1.20;1.10;;;;;;;-11.60;89.07;100029.25;5027011;28;20156;-80
2022/01/25 04:05:22;;;;;;;1.45;1.35;;;;;;;-11.62;88.73;100025.88;5026524;28;20059;-80
2022/01/25 04:07:50;;;;;;;1.38;1.27;;;;;;;-11.61;88.93;100024.97;5028285;28;20053;-81
2022/01/25 04:10:18;;;;;;;1.40;1.30;;;;;;;-11.60;88.97;100008.41;5031856;28;20046;-82
2022/01/25 04:12:46;;;;;;;1.42;1.33;;;;;;;-11.60;88.95;100016.22;5033647;28;20056;-84
2022/01/25 04:15:14;;;;;;;1.30;1.20;;;;;;;-11.59;88.98;100015.34;5033280;28;20057;-81
2022/01/25 04:17:46;;;;;;;1.30;1.20;;;;;;;-11.53;88.98;100014.16;5031477;28;20079;-81
2022/01/25 04:20:21;;;;;;;1.25;1.20;;;;;;;-11.53;88.87;100003.75;5031011;28;20056;-82
2022/01/25 04:25:34;;;;;;;1.50;1.40;;;;;;;-11.51;88.66;99999.31;5029537;28;20103;-80
2022/01/25 04:28:01;;;;;;;1.30;1.20;;;;;;;-11.44;88.66;100000.63;5029869;28;20065;-81
2022/01/25 04:30:29;;;;;;;1.08;1.08;;;;;;;-11.43;88.65;99997.97;5030903;28;20054;-80
2022/01/25 04:33:02;;;;;;;0.90;0.90;;;;;;;-11.40;88.68;99995.19;5030823;28;20073;-80
2022/01/25 04:49:19;;;;;;;1.50;1.40;;;;;;;-11.47;88.56;99986.00;5030429;28;20049;-82
2022/01/25 04:51:57;;;;;;;1.10;1.10;;;;;;;-11.51;88.58;99976.69;5030504;28;20076;-81
2022/01/25 05:00:19;;;;;;;1.00;1.00;;;;;;;-11.37;88.47;99969.00;4992164;28;20058;-82
2022/01/25 05:02:58;;;;;;;;;;;;;;;-11.41;88.37;99970.06;4993708;28;20730;-80
2022/01/25 05:08:18;;;;;;;1.35;1.25;;;;;;;-11.42;88.13;99976.22;4992502;28;20082;-81
2022/01/25 05:10:52;;;;;;;1.10;1.10;;;;;;;-11.37;88.32;99969.00;4992685;28;20116;-82
2022/01/25 05:13:41;;;;;;;1.33;1.23;;;;;;;-11.27;88.54;99965.88;4973612;28;20546;-81
2022/01/25 05:24:28;;;;;;;1.10;1.10;;;;;;;-11.44;88.25;99948.53;4973342;28;20529;-81
2022/01/25 05:26:55;;;;;;;1.25;1.20;;;;;;;-11.39;88.29;99942.16;4977213;28;20599;-81
2022/01/25 05:29:22;;;;;;;1.58;1.48;;;;;;;-11.40;88.33;99935.25;4979468;28;20093;-80
2022/01/25 05:31:49;;;;;;;1.30;1.20;;;;;;;-11.38;88.49;99930.81;5030187;28;20136;-80
2022/01/25 05:34:16;;;;;;;1.10;1.10;;;;;;;-11.31;88.55;99931.34;5033478;28;20049;-81
2022/01/25 05:36:44;;;;;;;1.30;1.20;;;;;;;-11.29;88.29;99918.19;5027833;28;20053;-81
2022/01/25 05:39:15;;;;;;;1.30;1.20;;;;;;;-11.26;88.20;99921.50;5020608;28;20061;-81
2022/01/25 05:41:42;;;;;;;1.55;1.45;;;;;;;-11.24;88.26;99930.09;5030976;28;20053;-82
2022/01/25 05:49:27;;;;;;;1.40;1.30;;;;;;;-11.28;88.08;99914.69;5010508;28;20255;-81
2022/01/25 05:51:54;;;;;;;1.25;1.20;;;;;;;-11.28;87.92;99912.09;5015076;28;20599;-82
2022/01/25 05:54:21;;;;;;;1.50;1.40;;;;;;;-11.27;87.84;99908.53;5020085;28;20049;-84
2022/01/25 05:56:49;;;;;;;1.38;1.27;;;;;;;-11.30;87.85;99898.28;5012435;28;20077;-82
2022/01/25 05:59:16;;;;;;;1.40;1.30;;;;;;;-11.22;88.16;99889.13;5016045;28;20058;-81
2022/01/25 06:01:48;;;;;;;1.30;1.20;;;;;;;-11.10;88.11;99884.16;5021487;28;20548;-82
2022/01/25 06:04:18;;;;;;;1.42;1.33;;;;;;;-11.04;88.23;99889.84;5019138;28;20547;-82
2022/01/25 06:06:48;;;;;;;1.33;1.23;;;;;;;-11.10;88.03;99879.78;5028454;28;20508;-80
2022/01/25 06:09:15;;;;;;;1.40;1.30;;;;;;;-11.05;87.80;99884.75;5024068;28;20156;-81
2022/01/25 06:11:42;;;;;;;1.05;1.05;;;;;;;-11.07;87.67;99889.19;5020974;28;20067;-81
2022/01/25 06:14:10;;;;;;;1.30;1.20;;;;;;;-11.08;87.50;99882.31;5024064;28;20455;-84
2022/01/25 06:16:37;;;;;;;1.40;1.30;;;;;;;-11.03;87.28;99882.91;5015307;28;20053;-82
2022/01/25 06:19:04;;;;;;;1.38;1.27;;;;;;;-11.01;87.26;99887.09;5021169;28;20559;-82
2022/01/25 06:21:36;;;;;;;1.35;1.25;;;;;;;-10.90;87.46;99878.66;5029862;28;20073;-81
2022/01/25 06:24:03;;;;;;;1.40;1.30;;;;;;;-10.83;87.32;99868.72;5023605;28;20518;-82
2022/01/25 06:26:30;;;;;;;0.95;0.95;;;;;;;-10.78;87.21;99866.69;5020469;28;20072;-81
2022/01/25 06:29:00;;;;;;;1.10;1.10;;;;;;;-10.71;87.10;99866.25;5028440;28;20140;-82
2022/01/25 06:31:30;;;;;;;1.30;1.20;;;;;;;-10.82;86.95;99844.31;5027989;28;20046;-82
2022/01/25 06:33:58;;;;;;;1.38;1.27;;;;;;;-10.75;86.69;99861.31;5026650;28;20055;-82
2022/01/25 06:36:28;;;;;;;1.10;1.10;;;;;;;-10.75;86.82;99853.47;5019613;28;20050;-84
2022/01/25 06:38:55;;;;;;;1.33;1.23;;;;;;;-10.78;86.57;99836.22;5008523;28;20489;-83
2022/01/25 06:41:26;;;;;;;1.15;1.15;;;;;;;-10.62;86.64;99840.56;5009063;28;20065;-84
2022/01/25 06:43:53;;;;;;;1.27;1.20;;;;;;;-10.59;86.07;99830.78;5009615;28;20428;-83
2022/01/25 06:46:20;;;;;;;1.10;1.10;;;;;;;-10.61;85.77;99837.00;5010058;28;20103;-82
2022/01/25 06:48:49;;;;;;;0.95;0.95;;;;;;;-10.54;85.97;99844.38;5016116;28;20081;-81
2022/01/25 06:51:16;;;;;;;0.93;0.93;;;;;;;-10.51;85.88;99838.97;5029396;28;20053;-81
2022/01/25 06:53:44;;;;;;;1.27;1.20;;;;;;;-10.39;85.96;99826.16;5028905;28;20115;-83
2022/01/25 06:56:12;;;;;;;1.35;1.25;;;;;;;-10.41;85.67;99823.63;5028108;28;20669;-83
2022/01/25 06:58:41;;;;;;;1.00;1.00;;;;;;;-10.28;85.50;99839.38;5019656;28;20096;-84
2022/01/25 07:01:08;;;;;;;1.05;1.05;;;;;;;-10.27;85.26;99801.91;5018624;28;20046;-84
2022/01/25 07:03:36;;;;;;;1.20;1.15;;;;;;;-10.32;84.40;99798.75;5025650;28;20061;-83
2022/01/25 07:06:03;;;;;;;1.10;1.10;;;;;;;-10.46;84.20;99783.91;5024729;28;20377;-82
2022/01/25 07:08:33;;;;;;;1.40;1.30;;;;;;;-10.49;83.92;99790.16;5025799;28;20085;-84
2022/01/25 07:11:01;;;;;;;1.10;1.10;;;;;;;-10.43;84.26;99798.53;5027598;28;20045;-84
2022/01/25 07:13:29;;;;;;;1.30;1.20;;;;;;;-10.46;84.12;99802.19;5039076;28;20050;-83
2022/01/25 07:15:56;;;;;;;1.17;1.15;;;;;;;-10.47;84.06;99808.34;5012612;28;20046;-83
2022/01/25 07:18:24;;;;;;;1.00;1.00;;;;;;;-10.45;84.35;99798.66;5011632;28;20054;-84
2022/01/25 07:20:52;;;;;;;1.35;1.25;;;;;;;-10.40;83.98;99798.38;5012016;28;20534;-84
2022/01/25 07:23:19;;;;;;;0.98;0.98;;;;;;;-10.28;84.11;99800.22;5012850;28;20127;-83
2022/01/25 07:25:49;;;;;;;1.40;1.30;;;;;;;-10.41;83.85;99788.88;5012711;28;20042;-85
2022/01/25 07:28:16;;;;;;;1.02;1.02;;;;;;;-10.35;84.08;99802.41;5011538;28;20076;-84
2022/01/25 07:30:44;;;;;;;1.17;1.15;;;;;;;-10.27;84.16;99800.13;5013494;28;20516;-83
2022/01/25 07:33:22;;;;;;;1.30;1.20;;;;;;;-10.37;84.11;99783.38;5017281;28;20045;-85
2022/01/25 07:35:52;;;;;;;1.40;1.30;;;;;;;-10.28;84.15;99790.66;5019173;28;20045;-84
2022/01/25 07:38:33;;;;;;;1.20;1.15;;;;;;;-10.34;83.87;99774.50;5014768;28;20587;-84
2022/01/25 07:41:06;;;;;;;1.23;1.20;;;;;;;-10.26;84.07;99780.91;5010903;28;20116;-84
2022/01/25 07:43:42;;;;;;;1.27;1.20;;;;;;;-10.20;84.28;99778.84;5011966;28;20054;-83
2022/01/25 07:46:24;;;;;;;1.40;1.30;;;;;;;-10.12;84.03;99785.31;5010509;28;20054;-83
2022/01/25 07:49:01;;;;;;;1.38;1.27;;;;;;;-10.05;84.03;99791.81;5010591;28;20108;-85
2022/01/25 07:51:35;;;;;;;1.50;1.40;;;;;;;-10.02;83.71;99782.97;5014454;28;20100;-84
2022/01/25 07:54:02;;;;;;;1.30;1.20;;;;;;;-10.08;83.29;99773.72;5014349;28;20053;-85
2022/01/25 07:56:30;;;;;;;1.08;1.08;;;;;;;-10.05;83.41;99777.91;5011449;28;20120;-85
2022/01/25 07:58:57;;;;;;;0.90;0.90;;;;;;;-9.96;83.37;99766.06;5012106;28;20112;-84
2022/01/25 08:01:26;;;;;;;1.30;1.20;;;;;;;-9.93;83.42;99769.31;5011188;28;20519;-85
2022/01/25 08:03:54;;;;;;;1.40;1.30;;;;;;;-9.83;83.29;99761.75;5011039;28;20423;-84
2022/01/25 08:06:30;;;;;;;0.90;0.90;;;;;;;-9.92;83.19;99738.84;5011917;28;20500;-83
2022/01/25 08:09:15;;;;;;;1.33;1.23;;;;;;;-9.91;82.74;99743.13;5011641;28;20123;-85
2022/01/25 08:11:58;;;;;;;1.27;1.20;;;;;;;-9.81;82.59;99747.66;5011856;28;20145;-85
2022/01/25 08:25:23;;;;;;;1.40;1.30;;;;;;;-9.82;82.06;99713.81;5091307;27;20434;-83
2022/01/25 08:27:55;;;;;;;1.60;1.50;;;;;;;-9.66;82.36;99714.50;5092916;28;20048;-85
2022/01/25 08:30:36;;;;;;;1.25;1.20;;;;;;;-9.52;82.29;99712.75;5082167;28;20048;-85
2022/01/25 08:33:19;;;;;;;1.40;1.30;;;;;;;-9.47;81.98;99708.06;5083042;28;20101;-85
2022/01/25 08:36:02;;;;;;;1.45;1.35;;;;;;;-9.38;82.04;99694.41;5087939;28;20063;-85
2022/01/25 08:38:49;;;;;;;1.13;1.13;;;;;;;-9.38;81.68;99689.19;5069836;28;20143;-85
2022/01/25 08:41:49;;;;;;;1.25;1.20;;;;;;;-9.35;81.64;99681.13;5082852;28;20071;-85
2022/01/25 08:44:41;;;;;;;1.13;1.13;;;;;;;-9.35;81.62;99683.75;5086629;28;20282;-83
2022/01/25 08:47:18;;;;;;;1.08;1.08;;;;;;;-9.34;81.62;99684.56;5086328;28;20423;-84
2022/01/25 08:49:59;;;;;;;1.38;1.27;;;;;;;-9.23;81.64;99677.69;5063457;28;20056;-84
2022/01/25 08:52:47;;;;;;;1.23;1.20;;;;;;;-9.26;81.39;99672.69;5061062;28;20113;-84
2022/01/25 08:55:31;;;;;;;0.90;0.90;;;;;;;-9.24;81.30;99683.88;5071660;28;20072;-86
2022/01/25 08:58:26;;;;;;;1.25;1.20;;;;;;;-9.09;81.20;99665.47;5073085;28;20060;-85
2022/01/25 09:00:54;;;;;;;1.02;1.02;;;;;;;-9.01;81.23;99669.25;5057337;28;20055;-85
2022/01/25 09:03:21;;;;;;;0.80;0.80;;;;;;;-8.99;80.96;99677.84;5056650;28;20049;-85
2022/01/25 09:05:48;;;;;;;1.00;1.00;;;;;;;-9.07;80.69;99659.19;5070399;28;20107;-85
2022/01/25 09:08:25;;;;;;;1.00;1.00;;;;;;;-8.99;81.04;99653.44;5070319;28;20053;-84
2022/01/25 09:11:01;;;;;;;1.08;1.08;;;;;;;-9.04;80.70;99642.47;5067903;28;20478;-85
2022/01/25 09:13:34;;;;;;;1.10;1.10;;;;;;;-9.05;80.74;99648.63;5066040;28;20073;-85
2022/01/25 09:16:02;;;;;;;1.27;1.20;;;;;;;-8.97;80.58;99647.16;5067295;28;20087;-86
2022/01/25 09:18:29;;;;;;;1.10;1.10;;;;;;;-9.02;80.70;99643.19;5065571;28;20393;-85
2022/01/25 09:20:57;;;;;;;0.98;0.98;;;;;;;-8.89;80.76;99644.03;5067708;28;20079;-85
2022/01/25 09:23:25;;;;;;;1.10;1.10;;;;;;;-8.74;80.74;99650.81;5067207;28;20114;-85
2022/01/25 09:25:52;;;;;;;0.90;0.90;;;;;;;-8.72;80.09;99642.88;5055400;28;20055;-85
2022/01/25 09:28:19;;;;;;;1.00;1.00;;;;;;;-8.69;79.96;99640.03;5033514;28;20044;-86
2022/01/25 09:30:47;;;;;;;1.08;1.08;;;;;;;-8.71;79.69;99618.38;5053229;28;20070;-87
2022/01/25 09:33:21;;;;;;;1.10;1.10;;;;;;;-8.69;79.89;99618.28;5037234;28;20507;-86
2022/01/25 09:35:51;;;;;;;1.13;1.13;;;;;;;-8.65;79.72;99614.50;5033909;28;20061;-85
2022/01/25 09:38:19;;;;;;;0.90;0.90;;;;;;;-8.58;79.68;99605.25;4687428;28;10000536;-83
2022/01/25 09:40:47;;;;;;;0.93;0.93;;;;;;;-8.56;79.42;99609.47;5039244;28;20049;-84
2022/01/25 09:43:17;;;;;;;1.10;1.10;;;;;;;-8.34;79.75;99606.09;5040903;28;20049;-84
2022/01/25 09:45:46;;;;;;;1.00;1.00;;;;;;;-8.31;79.38;99608.50;5032038;28;20111;-82
2022/01/25 09:48:16;;;;;;;0.80;0.80;;;;;;;-8.58;79.00;99590.41;5031127;28;20061;-83
2022/01/25 09:50:44;;;;;;;1.10;1.10;;;;;;;-8.41;79.55;99596.22;5030826;28;20088;-83
2022/01/25 09:53:11;;;;;;;1.10;1.10;;;;;;;-8.29;79.70;99575.19;5035306;28;20049;-81
2022/01/25 09:55:40;;;;;;;1.13;1.13;;;;;;;-8.24;78.92;99577.50;5038514;28;20113;-82
2022/01/25 09:58:12;;;;;;;1.02;1.02;;;;;;;-8.47;78.95;99560.03;5030119;28;20038;-84
2022/01/25 10:00:42;;;;;;;0.90;0.90;;;;;;;-8.46;79.53;99572.16;5031154;28;20084;-84
2022/01/25 10:03:25;;;;;;;0.93;0.93;;;;;;;-8.54;79.35;99559.59;5040740;28;20056;-85
2022/01/25 10:05:59;;;;;;;0.80;0.80;;;;;;;-8.46;79.67;99562.50;5030517;28;20048;-85
2022/01/25 10:08:35;;;;;;;1.03;1.03;;;;;;;-8.56;79.69;99559.75;5029159;28;20046;-84
2022/01/25 10:11:05;;;;;;;0.93;0.93;;;;;;;-8.70;79.85;99543.34;5029866;28;20303;-84
2022/01/25 10:13:37;;;;;;;0.90;0.90;;;;;;;-8.66;80.23;99540.38;5031854;28;20199;-84
2022/01/25 10:16:13;;;;;;;1.00;1.00;;;;;;;-8.58;80.42;99524.13;5052877;28;20555;-83
2022/01/25 10:18:58;;;;;;;1.00;1.00;;;;;;;-8.47;80.40;99528.59;5048096;28;20049;-82
2022/01/25 10:21:31;;;;;;;0.80;0.80;;;;;;;-8.46;80.42;99531.09;5041275;28;20504;-83
2022/01/25 10:24:13;;;;;;;0.90;0.90;;;;;;;-8.56;79.50;99535.31;5036922;28;20045;-83
2022/01/25 10:26:49;;;;;;;1.08;1.08;;;;;;;-8.89;80.18;99517.63;5042536;28;20493;-84
2022/01/25 10:29:23;;;;;;;0.85;0.85;;;;;;;-8.83;80.78;99525.06;5039471;28;20045;-83
2022/01/25 10:31:54;;;;;;;0.90;0.90;;;;;;;-8.77;80.91;99533.28;5040882;28;20242;-85
2022/01/25 10:34:27;;;;;;;0.90;0.90;;;;;;;-8.81;81.16;99520.53;5053274;28;20045;-84
2022/01/25 10:36:57;;;;;;;0.80;0.80;;;;;;;-8.77;81.23;99522.81;5052820;28;20053;-84
2022/01/25 10:39:30;;;;;;;1.05;1.05;;;;;;;-8.75;81.11;99493.94;5050696;28;20470;-84
2022/01/25 10:42:09;;;;;;;1.23;1.20;;;;;;;-8.61;81.31;99485.91;5045395;28;20072;-84
2022/01/25 10:44:53;;;;;;;0.90;0.90;;;;;;;-8.51;81.10;99476.47;5031909;28;20057;-85
2022/01/25 10:47:40;;;;;;;1.15;1.15;;;;;;;-8.45;80.41;99485.66;5037785;28;20057;-84
2022/01/25 10:50:16;;;;;;;1.30;1.20;;;;;;;-8.70;80.10;99480.53;5041950;28;20049;-84
2022/01/25 10:52:46;;;;;;;0.90;0.90;;;;;;;-8.80;80.80;99475.94;5053157;28;20052;-83
2022/01/25 10:55:14;;;;;;;1.00;1.00;;;;;;;-8.68;81.18;99468.16;5040943;28;20053;-85
2022/01/25 10:57:41;;;;;;;1.02;1.02;;;;;;;-8.55;81.38;99463.72;5051149;28;20044;-84
2022/01/25 11:00:31;;;;;;;0.88;0.88;;;;;;;-8.44;81.28;99455.91;5051609;28;20088;-85
2022/01/25 11:02:58;;;;;;;0.98;0.98;;;;;;;-8.36;81.18;99456.13;5052338;28;20439;-85
2022/01/25 11:05:26;;;;;;;0.80;0.80;;;;;;;-8.45;80.29;99459.47;5042934;28;20045;-86
2022/01/25 11:07:53;;;;;;;1.00;1.00;;;;;;;-8.51;80.70;99455.53;5044300;28;20079;-84
2022/01/25 11:10:21;;;;;;;0.90;0.90;;;;;;;-8.55;80.27;99440.16;5049686;28;20099;-82
2022/01/25 11:13:22;;;;;;;1.25;1.17;;;;;;;-8.62;79.90;99436.31;5050577;28;20051;-84
2022/01/25 11:15:36;;;;;;;1.10;1.10;;;;;;;-8.55;80.26;99438.38;5041049;28;20069;-82
2022/01/25 11:18:05;;;;;;;1.00;1.00;;;;;;;-8.52;80.16;99425.06;5037816;28;20366;-83
2022/01/25 11:20:34;;;;;;;1.08;1.08;;;;;;;-8.61;80.08;99414.44;5031619;28;20096;-84
2022/01/25 11:23:02;;;;;;;1.10;1.10;;;;;;;-8.62;80.14;99413.59;5038275;28;20053;-85
2022/01/25 11:25:33;;;;;;;1.15;1.15;;;;;;;-8.71;80.35;99411.63;5044217;28;20142;-85
2022/01/25 11:28:01;;;;;;;0.90;0.90;;;;;;;-8.67;80.75;99396.56;5041812;28;20148;-82
2022/01/25 11:30:28;;;;;;;0.80;0.80;;;;;;;-8.72;80.93;99389.88;5044502;28;20393;-83
2022/01/25 11:32:55;;;;;;;1.00;1.00;;;;;;;-8.71;81.29;99377.63;5041950;28;20041;-82
2022/01/25 11:35:25;;;;;;;1.00;1.00;;;;;;;-8.82;81.17;99401.97;5047611;28;20056;-84
2022/01/25 11:37:53;;;;;;;0.90;0.90;;;;;;;-8.91;81.34;99376.50;5042346;28;20100;-81
2022/01/25 11:40:26;;;;;;;1.00;1.00;;;;;;;-9.03;81.50;99380.00;5037879;28;20049;-80
2022/01/25 11:42:56;;;;;;;1.40;1.30;;;;;;;-9.07;81.71;99376.75;5041494;28;20045;-81
2022/01/25 11:45:25;;;;;;;1.00;1.00;;;;;;;-9.05;81.81;99387.13;5043510;28;20459;-81
2022/01/25 11:47:54;;;;;;;1.00;1.00;;;;;;;-9.06;81.96;99374.97;5049779;28;20450;-81
2022/01/25 11:50:27;;;;;;;1.30;1.20;;;;;;;-8.99;81.66;99376.19;5042582;28;20063;-81
2022/01/25 11:52:56;;;;;;;0.93;0.93;;;;;;;-9.11;81.39;99372.72;5032127;28;20539;-82
2022/01/25 11:55:41;;;;;;;1.10;1.10;;;;;;;-9.29;81.83;99374.00;5029947;28;20493;-81
2022/01/25 11:58:31;;;;;;;0.98;0.98;;;;;;;-9.27;82.37;99378.19;5039320;28;20195;-82
2022/01/25 12:01:02;;;;;;;1.00;1.00;;;;;;;-9.20;82.48;99374.19;5048366;28;20045;-84
2022/01/25 12:03:49;;;;;;;0.93;0.93;;;;;;;-9.09;82.73;99364.72;5050683;28;20045;-84
2022/01/25 12:06:22;;;;;;;1.10;1.10;;;;;;;-8.99;82.78;99369.22;5048209;28;20556;-87
2022/01/25 12:09:14;;;;;;;1.27;1.20;;;;;;;-8.97;82.65;99366.47;5052617;28;20565;-86
2022/01/25 12:12:00;;;;;;;1.13;1.10;;;;;;;-9.01;82.38;99367.66;5050333;28;20095;-85
2022/01/25 12:14:28;;;;;;;1.00;1.00;;;;;;;-9.04;82.29;99365.22;5031306;28;20068;-85
2022/01/25 12:17:09;;;;;;;1.40;1.30;;;;;;;-9.16;82.03;99370.41;5031487;28;20059;-85
2022/01/25 12:19:59;;;;;;;0.90;0.90;;;;;;;-9.19;82.23;99373.25;5037788;28;20122;-84
2022/01/25 12:22:39;;;;;;;1.00;1.00;;;;;;;-9.21;82.17;99374.31;5046971;28;20045;-85
2022/01/25 12:25:32;;;;;;;0.95;0.95;;;;;;;-9.16;82.18;99365.19;5046491;28;20053;-84
2022/01/25 12:28:07;;;;;;;1.10;1.10;;;;;;;-9.21;82.18;99369.09;5046670;28;20051;-85
2022/01/25 12:30:40;;;;;;;0.95;0.95;;;;;;;-9.14;82.42;99374.69;5049574;28;20049;-85
2022/01/25 12:33:12;;;;;;;1.38;1.27;;;;;;;-9.20;82.34;99360.28;5044529;28;20132;-86
2022/01/25 12:35:46;;;;;;;1.17;1.17;;;;;;;-9.17;82.43;99363.50;5051017;28;20111;-85
2022/01/25 12:38:27;;;;;;;1.10;1.10;;;;;;;-9.21;82.71;99358.63;5049673;28;20163;-84
2022/01/25 12:40:57;;;;;;;0.90;0.90;;;;;;;-9.26;82.40;99358.94;5048866;28;20050;-85
2022/01/25 12:43:35;;;;;;;1.10;1.10;;;;;;;-9.31;82.52;99363.69;5040348;28;20088;-84
2022/01/25 12:46:10;;;;;;;0.90;0.90;;;;;;;-9.27;82.49;99365.09;5015632;28;20057;-87
2022/01/25 12:48:47;;;;;;;1.13;1.13;;;;;;;-9.29;82.66;99372.25;4694774;28;10000071;-89
2022/01/25 12:51:23;;;;;;;1.08;1.08;;;;;;;-9.44;82.13;99353.25;5046834;28;20049;-86
2022/01/25 12:53:55;;;;;;;1.30;1.20;;;;;;;-9.58;82.30;99342.94;5066964;28;20056;-87
2022/01/25 12:56:35;;;;;;;0.90;0.90;;;;;;;-9.55;82.51;99360.19;5052212;28;20156;-89
2022/01/25 12:59:12;;;;;;;1.13;1.13;;;;;;;-9.49;82.62;99357.16;5051870;28;20064;-89
2022/01/25 13:01:44;;;;;;;1.00;1.00;;;;;;;-9.45;82.67;99340.28;5051383;28;20060;-88
2022/01/25 13:04:13;;;;;;;1.00;1.00;;;;;;;-9.35;82.79;99343.09;5047473;28;20064;-89
2022/01/25 13:06:50;;;;;;;1.13;1.13;;;;;;;-9.44;82.36;99326.28;5049558;28;20072;-88
2022/01/25 13:09:33;;;;;;;1.05;1.05;;;;;;;-9.40;82.39;99335.56;5052507;28;20045;-87
2022/01/25 13:17:16;;;;;;;1.05;1.05;;;;;;;-9.45;82.93;99327.22;5029853;28;20161;-89
2022/01/25 13:19:50;;;;;;;0.85;0.85;;;;;;;-9.38;83.22;99328.47;5048642;28;20068;-88
2022/01/25 13:22:28;;;;;;;;;;;;;;;-9.32;83.39;99317.53;5044922;28;20053;-91
2022/01/25 13:25:20;;;;;;;0.98;0.98;;;;;;;-9.31;83.26;99315.78;5001271;28;20372;-88
2022/01/25 13:33:03;;;;;;;0.90;0.90;;;;;;;-9.41;82.74;99310.38;5040171;28;20239;-91
2022/01/25 13:35:35;;;;;;;1.10;1.10;;;;;;;-9.53;82.91;99290.34;5054952;28;20060;-89
2022/01/25 13:38:16;;;;;;;1.13;1.13;;;;;;;-9.54;83.01;99288.66;5031912;28;20492;-89
2022/01/25 13:40:52;;;;;;;1.00;1.00;;;;;;;-9.49;83.17;99305.72;5035901;28;20050;-89
2022/01/25 13:46:00;;;;;;;1.00;1.00;;;;;;;-9.48;83.48;99301.31;5035860;28;20149;-90
2022/01/25 13:48:27;;;;;;;0.90;0.90;;;;;;;-9.44;83.37;99308.00;5046808;28;20476;-89
2022/01/25 13:50:57;;;;;;;1.00;1.00;;;;;;;-9.47;83.29;99298.59;5015992;28;20578;-88
2022/01/25 13:53:26;;;;;;;0.90;0.90;;;;;;;-9.56;83.33;99294.03;5027213;28;20546;-87
2022/01/25 13:55:56;;;;;;;0.80;0.80;;;;;;;-9.58;83.28;99289.84;5044698;28;20060;-88
2022/01/25 13:58:38;;;;;;;1.10;1.10;;;;;;;-9.61;83.32;99288.28;5011069;28;20050;-87